sensor_id;sensor_type;location;lat;lon;timestamp;temperature;humidity
16655;DHT22;8441;51.344;7.022;2024-03-02T00:01:36;7.00;99.90
16655;DHT22;8441;51.344;7.022;2024-03-02T00:04:04;7.00;99.90
16655;DHT22;8441;51.344;7.022;2024-03-02T00:06:35;7.10;99.90
16655;DHT22;8441;51.344;7.022;2024-03-02T00:09:03;7.20;99.90
16655;DHT22;8441;51.344;7.022;2024-03-02T00:11:30;7.20;99.90
16655;DHT22;8441;51.344;7.022;2024-03-02T00:14:01;7.10;99.90
16655;DHT22;8441;51.344;7.022;2024-03-02T00:16:30;7.10;99.90
16655;DHT22;8441;51.344;7.022;2024-03-02T00:19:01;7.10;99.90
16655;DHT22;8441;51.344;7.022;2024-03-02T00:21:30;7.00;99.90
16655;DHT22;8441;51.344;7.022;2024-03-02T00:24:00;7.10;99.90
16655;DHT22;8441;51.344;7.022;2024-03-02T00:26:29;7.00;99.90
16655;DHT22;8441;51.344;7.022;2024-03-02T00:28:56;7.00;99.90
16655;DHT22;8441;51.344;7.022;2024-03-02T00:31:24;7.10;99.90
16655;DHT22;8441;51.344;7.022;2024-03-02T00:33:51;7.30;99.90
16655;DHT22;8441;51.344;7.022;2024-03-02T00:36:24;7.30;99.90
16655;DHT22;8441;51.344;7.022;2024-03-02T00:38:53;7.40;99.90
16655;DHT22;8441;51.344;7.022;2024-03-02T00:41:25;7.40;99.90
16655;DHT22;8441;51.344;7.022;2024-03-02T00:44:02;7.40;99.90
16655;DHT22;8441;51.344;7.022;2024-03-02T00:46:34;7.40;99.90
16655;DHT22;8441;51.344;7.022;2024-03-02T00:49:02;7.40;99.90
16655;DHT22;8441;51.344;7.022;2024-03-02T00:51:31;7.50;99.90
16655;DHT22;8441;51.344;7.022;2024-03-02T00:54:03;7.50;99.90
16655;DHT22;8441;51.344;7.022;2024-03-02T00:56:32;7.60;99.90
16655;DHT22;8441;51.344;7.022;2024-03-02T00:59:00;7.60;99.90
16655;DHT22;8441;51.344;7.022;2024-03-02T01:01:27;7.70;99.90
16655;DHT22;8441;51.344;7.022;2024-03-02T01:03:55;7.70;99.90
16655;DHT22;8441;51.344;7.022;2024-03-02T01:06:22;7.70;99.90
16655;DHT22;8441;51.344;7.022;2024-03-02T01:08:50;7.70;99.90
16655;DHT22;8441;51.344;7.022;2024-03-02T01:11:17;7.70;99.90
16655;DHT22;8441;51.344;7.022;2024-03-02T01:13:46;7.80;99.90
16655;DHT22;8441;51.344;7.022;2024-03-02T01:16:14;7.80;99.90
16655;DHT22;8441;51.344;7.022;2024-03-02T01:18:41;7.90;99.90
16655;DHT22;8441;51.344;7.022;2024-03-02T01:21:09;7.90;99.90
16655;DHT22;8441;51.344;7.022;2024-03-02T01:23:36;7.90;99.90
16655;DHT22;8441;51.344;7.022;2024-03-02T01:26:03;7.90;99.90
16655;DHT22;8441;51.344;7.022;2024-03-02T01:28:31;7.90;99.90
16655;DHT22;8441;51.344;7.022;2024-03-02T01:31:00;7.80;99.90
16655;DHT22;8441;51.344;7.022;2024-03-02T01:33:28;7.80;99.90
16655;DHT22;8441;51.344;7.022;2024-03-02T01:35:55;7.80;99.90
16655;DHT22;8441;51.344;7.022;2024-03-02T01:38:22;7.80;99.90
16655;DHT22;8441;51.344;7.022;2024-03-02T01:40:49;7.80;99.90
16655;DHT22;8441;51.344;7.022;2024-03-02T01:43:17;7.80;99.90
16655;DHT22;8441;51.344;7.022;2024-03-02T01:45:45;7.80;99.90
16655;DHT22;8441;51.344;7.022;2024-03-02T01:48:13;7.70;99.90
16655;DHT22;8441;51.344;7.022;2024-03-02T01:50:40;7.60;99.90
16655;DHT22;8441;51.344;7.022;2024-03-02T01:53:09;7.40;99.90
16655;DHT22;8441;51.344;7.022;2024-03-02T01:55:36;7.30;99.90
16655;DHT22;8441;51.344;7.022;2024-03-02T01:58:04;7.20;99.90
16655;DHT22;8441;51.344;7.022;2024-03-02T02:00:31;7.20;99.90
16655;DHT22;8441;51.344;7.022;2024-03-02T02:02:58;7.20;99.90
16655;DHT22;8441;51.344;7.022;2024-03-02T02:05:27;7.20;99.90
16655;DHT22;8441;51.344;7.022;2024-03-02T02:07:54;7.20;99.90
16655;DHT22;8441;51.344;7.022;2024-03-02T02:10:24;7.10;99.90
16655;DHT22;8441;51.344;7.022;2024-03-02T02:12:51;7.20;99.90
16655;DHT22;8441;51.344;7.022;2024-03-02T02:15:26;7.30;99.90
16655;DHT22;8441;51.344;7.022;2024-03-02T02:17:53;7.40;99.90
16655;DHT22;8441;51.344;7.022;2024-03-02T02:20:21;7.50;99.90
16655;DHT22;8441;51.344;7.022;2024-03-02T02:22:59;7.60;99.90
16655;DHT22;8441;51.344;7.022;2024-03-02T02:25:27;7.70;99.90
16655;DHT22;8441;51.344;7.022;2024-03-02T02:27:55;7.70;99.90
16655;DHT22;8441;51.344;7.022;2024-03-02T02:30:23;7.70;99.90
16655;DHT22;8441;51.344;7.022;2024-03-02T02:32:51;7.80;99.90
16655;DHT22;8441;51.344;7.022;2024-03-02T02:35:18;7.80;99.90
16655;DHT22;8441;51.344;7.022;2024-03-02T02:37:47;7.90;99.90
16655;DHT22;8441;51.344;7.022;2024-03-02T02:40:16;7.90;99.90
16655;DHT22;8441;51.344;7.022;2024-03-02T02:42:45;7.90;99.90
16655;DHT22;8441;51.344;7.022;2024-03-02T02:45:12;7.90;99.90
16655;DHT22;8441;51.344;7.022;2024-03-02T02:47:40;7.90;99.90
16655;DHT22;8441;51.344;7.022;2024-03-02T02:50:08;8.00;99.90
16655;DHT22;8441;51.344;7.022;2024-03-02T02:52:37;8.00;99.90
16655;DHT22;8441;51.344;7.022;2024-03-02T02:55:07;8.00;99.90
16655;DHT22;8441;51.344;7.022;2024-03-02T02:57:36;8.00;99.90
16655;DHT22;8441;51.344;7.022;2024-03-02T03:00:06;8.00;99.90
16655;DHT22;8441;51.344;7.022;2024-03-02T03:02:37;8.10;99.90
16655;DHT22;8441;51.344;7.022;2024-03-02T03:05:06;8.10;99.90
16655;DHT22;8441;51.344;7.022;2024-03-02T03:07:33;8.10;99.90
16655;DHT22;8441;51.344;7.022;2024-03-02T03:10:03;8.10;99.90
16655;DHT22;8441;51.344;7.022;2024-03-02T03:12:30;8.10;99.90
16655;DHT22;8441;51.344;7.022;2024-03-02T03:14:59;8.10;99.90
16655;DHT22;8441;51.344;7.022;2024-03-02T03:17:27;8.10;99.90
16655;DHT22;8441;51.344;7.022;2024-03-02T03:19:54;8.10;99.90
16655;DHT22;8441;51.344;7.022;2024-03-02T03:22:22;8.10;99.90
16655;DHT22;8441;51.344;7.022;2024-03-02T03:24:49;8.10;99.90
16655;DHT22;8441;51.344;7.022;2024-03-02T03:27:16;8.10;99.90
16655;DHT22;8441;51.344;7.022;2024-03-02T03:29:43;8.20;99.90
16655;DHT22;8441;51.344;7.022;2024-03-02T03:32:12;8.20;99.90
16655;DHT22;8441;51.344;7.022;2024-03-02T03:34:40;8.10;99.90
16655;DHT22;8441;51.344;7.022;2024-03-02T03:37:07;8.10;99.90
16655;DHT22;8441;51.344;7.022;2024-03-02T03:39:35;8.10;99.90
16655;DHT22;8441;51.344;7.022;2024-03-02T03:42:02;8.00;99.90
16655;DHT22;8441;51.344;7.022;2024-03-02T03:44:30;8.00;99.90
16655;DHT22;8441;51.344;7.022;2024-03-02T03:46:57;8.00;99.90
16655;DHT22;8441;51.344;7.022;2024-03-02T03:49:26;8.00;99.90
16655;DHT22;8441;51.344;7.022;2024-03-02T03:51:53;8.00;99.90
16655;DHT22;8441;51.344;7.022;2024-03-02T03:54:20;8.00;99.90
16655;DHT22;8441;51.344;7.022;2024-03-02T03:56:48;8.00;99.90
16655;DHT22;8441;51.344;7.022;2024-03-02T03:59:15;8.00;99.90
16655;DHT22;8441;51.344;7.022;2024-03-02T04:01:42;8.00;99.90
16655;DHT22;8441;51.344;7.022;2024-03-02T04:04:09;8.00;99.90
16655;DHT22;8441;51.344;7.022;2024-03-02T04:06:38;7.90;99.90
16655;DHT22;8441;51.344;7.022;2024-03-02T04:09:05;7.80;99.90
16655;DHT22;8441;51.344;7.022;2024-03-02T04:11:33;7.80;99.90
16655;DHT22;8441;51.344;7.022;2024-03-02T04:14:00;7.70;99.90
16655;DHT22;8441;51.344;7.022;2024-03-02T04:16:27;7.60;99.90
16655;DHT22;8441;51.344;7.022;2024-03-02T04:18:55;7.50;99.90
16655;DHT22;8441;51.344;7.022;2024-03-02T04:21:22;7.50;99.90
16655;DHT22;8441;51.344;7.022;2024-03-02T04:23:51;7.40;99.90
16655;DHT22;8441;51.344;7.022;2024-03-02T04:26:18;7.30;99.90
16655;DHT22;8441;51.344;7.022;2024-03-02T04:28:47;7.20;99.90
16655;DHT22;8441;51.344;7.022;2024-03-02T04:31:15;7.20;99.90
16655;DHT22;8441;51.344;7.022;2024-03-02T04:33:43;7.20;99.90
16655;DHT22;8441;51.344;7.022;2024-03-02T04:36:10;7.10;99.90
16655;DHT22;8441;51.344;7.022;2024-03-02T04:38:37;7.00;99.90
16655;DHT22;8441;51.344;7.022;2024-03-02T04:41:07;6.90;99.90
16655;DHT22;8441;51.344;7.022;2024-03-02T04:43:34;6.90;99.90
16655;DHT22;8441;51.344;7.022;2024-03-02T04:46:02;6.80;99.90
16655;DHT22;8441;51.344;7.022;2024-03-02T04:48:29;6.80;99.90
16655;DHT22;8441;51.344;7.022;2024-03-02T04:50:56;6.80;99.90
16655;DHT22;8441;51.344;7.022;2024-03-02T04:53:24;6.80;99.90
16655;DHT22;8441;51.344;7.022;2024-03-02T04:55:51;6.70;99.90
16655;DHT22;8441;51.344;7.022;2024-03-02T04:58:54;6.60;99.90
16655;DHT22;8441;51.344;7.022;2024-03-02T05:01:22;6.70;99.90
16655;DHT22;8441;51.344;7.022;2024-03-02T05:03:49;6.60;99.90
16655;DHT22;8441;51.344;7.022;2024-03-02T05:06:17;6.60;99.90
16655;DHT22;8441;51.344;7.022;2024-03-02T05:08:44;6.60;99.90
16655;DHT22;8441;51.344;7.022;2024-03-02T05:11:11;6.60;99.90
16655;DHT22;8441;51.344;7.022;2024-03-02T05:13:57;6.70;99.90
16655;DHT22;8441;51.344;7.022;2024-03-02T05:16:24;6.70;99.90
16655;DHT22;8441;51.344;7.022;2024-03-02T05:18:51;6.70;99.90
16655;DHT22;8441;51.344;7.022;2024-03-02T05:21:18;6.60;99.90
16655;DHT22;8441;51.344;7.022;2024-03-02T05:23:46;6.60;99.90
16655;DHT22;8441;51.344;7.022;2024-03-02T05:26:13;6.60;99.90
16655;DHT22;8441;51.344;7.022;2024-03-02T05:28:40;6.60;99.90
16655;DHT22;8441;51.344;7.022;2024-03-02T05:31:10;6.50;99.90
16655;DHT22;8441;51.344;7.022;2024-03-02T05:33:38;6.50;99.90
16655;DHT22;8441;51.344;7.022;2024-03-02T05:36:05;6.60;99.90
16655;DHT22;8441;51.344;7.022;2024-03-02T05:38:34;6.50;99.90
16655;DHT22;8441;51.344;7.022;2024-03-02T05:41:02;6.50;99.90
16655;DHT22;8441;51.344;7.022;2024-03-02T05:43:30;6.40;99.90
16655;DHT22;8441;51.344;7.022;2024-03-02T05:45:58;6.30;99.90
16655;DHT22;8441;51.344;7.022;2024-03-02T05:48:26;6.20;99.90
16655;DHT22;8441;51.344;7.022;2024-03-02T05:50:53;6.20;99.90
16655;DHT22;8441;51.344;7.022;2024-03-02T05:53:21;6.20;99.90
16655;DHT22;8441;51.344;7.022;2024-03-02T05:55:48;6.20;99.90
16655;DHT22;8441;51.344;7.022;2024-03-02T05:58:19;6.10;99.90
16655;DHT22;8441;51.344;7.022;2024-03-02T06:00:58;6.10;99.90
16655;DHT22;8441;51.344;7.022;2024-03-02T06:03:27;6.00;99.90
16655;DHT22;8441;51.344;7.022;2024-03-02T06:05:55;6.00;99.90
16655;DHT22;8441;51.344;7.022;2024-03-02T06:08:22;6.00;99.90
16655;DHT22;8441;51.344;7.022;2024-03-02T06:10:49;5.90;99.90
16655;DHT22;8441;51.344;7.022;2024-03-02T06:13:17;5.90;99.90
16655;DHT22;8441;51.344;7.022;2024-03-02T06:15:44;5.90;99.90
16655;DHT22;8441;51.344;7.022;2024-03-02T06:18:11;5.80;99.90
16655;DHT22;8441;51.344;7.022;2024-03-02T06:20:40;5.80;99.90
16655;DHT22;8441;51.344;7.022;2024-03-02T06:23:07;5.70;99.90
16655;DHT22;8441;51.344;7.022;2024-03-02T06:25:35;5.70;99.90
16655;DHT22;8441;51.344;7.022;2024-03-02T06:28:02;5.80;99.90
16655;DHT22;8441;51.344;7.022;2024-03-02T06:30:30;5.80;99.90
16655;DHT22;8441;51.344;7.022;2024-03-02T06:32:57;5.90;99.90
16655;DHT22;8441;51.344;7.022;2024-03-02T06:35:24;5.90;99.90
16655;DHT22;8441;51.344;7.022;2024-03-02T06:37:53;6.00;99.90
16655;DHT22;8441;51.344;7.022;2024-03-02T06:40:20;5.90;99.90
16655;DHT22;8441;51.344;7.022;2024-03-02T06:42:48;5.90;99.90
16655;DHT22;8441;51.344;7.022;2024-03-02T06:45:15;5.80;99.90
16655;DHT22;8441;51.344;7.022;2024-03-02T06:47:42;5.80;99.90
16655;DHT22;8441;51.344;7.022;2024-03-02T06:50:10;5.80;99.90
16655;DHT22;8441;51.344;7.022;2024-03-02T06:52:37;5.80;99.90
16655;DHT22;8441;51.344;7.022;2024-03-02T06:55:07;5.80;99.90
16655;DHT22;8441;51.344;7.022;2024-03-02T06:57:34;5.70;99.90
16655;DHT22;8441;51.344;7.022;2024-03-02T07:00:01;5.70;99.90
16655;DHT22;8441;51.344;7.022;2024-03-02T07:02:30;5.70;99.90
16655;DHT22;8441;51.344;7.022;2024-03-02T07:04:58;5.80;99.90
16655;DHT22;8441;51.344;7.022;2024-03-02T07:07:25;5.90;99.90
16655;DHT22;8441;51.344;7.022;2024-03-02T07:09:53;5.90;99.90
16655;DHT22;8441;51.344;7.022;2024-03-02T07:12:21;6.00;99.90
16655;DHT22;8441;51.344;7.022;2024-03-02T07:14:49;6.00;99.90
16655;DHT22;8441;51.344;7.022;2024-03-02T07:17:50;6.20;99.90
16655;DHT22;8441;51.344;7.022;2024-03-02T07:20:18;6.40;99.90
16655;DHT22;8441;51.344;7.022;2024-03-02T07:22:45;6.60;99.90
16655;DHT22;8441;51.344;7.022;2024-03-02T07:25:12;6.80;99.90
16655;DHT22;8441;51.344;7.022;2024-03-02T07:27:41;7.00;99.90
16655;DHT22;8441;51.344;7.022;2024-03-02T07:30:13;7.20;99.90
16655;DHT22;8441;51.344;7.022;2024-03-02T07:32:41;7.40;99.90
16655;DHT22;8441;51.344;7.022;2024-03-02T07:35:11;7.50;99.90
16655;DHT22;8441;51.344;7.022;2024-03-02T07:37:40;7.60;99.90
16655;DHT22;8441;51.344;7.022;2024-03-02T07:40:09;7.60;99.90
16655;DHT22;8441;51.344;7.022;2024-03-02T07:42:38;7.60;99.90
16655;DHT22;8441;51.344;7.022;2024-03-02T07:45:08;7.60;99.90
16655;DHT22;8441;51.344;7.022;2024-03-02T07:47:35;7.50;99.90
16655;DHT22;8441;51.344;7.022;2024-03-02T07:50:03;7.50;99.90
16655;DHT22;8441;51.344;7.022;2024-03-02T07:52:32;7.40;99.90
16655;DHT22;8441;51.344;7.022;2024-03-02T07:54:59;7.50;99.90
16655;DHT22;8441;51.344;7.022;2024-03-02T07:57:26;7.50;99.90
16655;DHT22;8441;51.344;7.022;2024-03-02T07:59:54;7.50;99.90
16655;DHT22;8441;51.344;7.022;2024-03-02T08:02:22;7.40;99.90
16655;DHT22;8441;51.344;7.022;2024-03-02T08:04:50;7.50;99.90
16655;DHT22;8441;51.344;7.022;2024-03-02T08:07:17;7.40;99.90
16655;DHT22;8441;51.344;7.022;2024-03-02T08:09:44;7.40;99.90
16655;DHT22;8441;51.344;7.022;2024-03-02T08:12:12;7.40;99.90
16655;DHT22;8441;51.344;7.022;2024-03-02T08:14:39;7.50;99.90
16655;DHT22;8441;51.344;7.022;2024-03-02T08:17:06;7.50;99.90
16655;DHT22;8441;51.344;7.022;2024-03-02T08:19:36;7.50;99.90
16655;DHT22;8441;51.344;7.022;2024-03-02T08:22:04;7.50;99.90
16655;DHT22;8441;51.344;7.022;2024-03-02T08:24:32;7.50;99.90
16655;DHT22;8441;51.344;7.022;2024-03-02T08:27:00;7.50;99.90
16655;DHT22;8441;51.344;7.022;2024-03-02T08:29:27;7.50;99.90
16655;DHT22;8441;51.344;7.022;2024-03-02T08:31:54;7.60;99.90
16655;DHT22;8441;51.344;7.022;2024-03-02T08:34:22;7.70;99.90
16655;DHT22;8441;51.344;7.022;2024-03-02T08:36:51;7.80;99.90
16655;DHT22;8441;51.344;7.022;2024-03-02T08:39:19;7.80;99.90
16655;DHT22;8441;51.344;7.022;2024-03-02T08:41:47;7.90;99.90
16655;DHT22;8441;51.344;7.022;2024-03-02T08:44:15;8.00;99.90
16655;DHT22;8441;51.344;7.022;2024-03-02T08:46:43;8.00;99.90
16655;DHT22;8441;51.344;7.022;2024-03-02T08:49:11;8.10;99.90
16655;DHT22;8441;51.344;7.022;2024-03-02T08:51:39;8.10;99.90
16655;DHT22;8441;51.344;7.022;2024-03-02T08:54:09;8.20;99.90
16655;DHT22;8441;51.344;7.022;2024-03-02T08:56:36;8.20;99.90
16655;DHT22;8441;51.344;7.022;2024-03-02T08:59:04;8.30;99.90
16655;DHT22;8441;51.344;7.022;2024-03-02T09:01:31;8.30;99.90
16655;DHT22;8441;51.344;7.022;2024-03-02T09:03:58;8.40;99.90
16655;DHT22;8441;51.344;7.022;2024-03-02T09:06:26;8.50;99.90
16655;DHT22;8441;51.344;7.022;2024-03-02T09:08:53;8.60;99.90
16655;DHT22;8441;51.344;7.022;2024-03-02T09:11:21;8.70;99.90
16655;DHT22;8441;51.344;7.022;2024-03-02T09:13:49;8.80;99.90
16655;DHT22;8441;51.344;7.022;2024-03-02T09:16:17;8.80;99.90
16655;DHT22;8441;51.344;7.022;2024-03-02T09:18:44;8.80;99.90
16655;DHT22;8441;51.344;7.022;2024-03-02T09:21:11;8.90;99.90
16655;DHT22;8441;51.344;7.022;2024-03-02T09:23:39;8.90;99.90
16655;DHT22;8441;51.344;7.022;2024-03-02T09:26:06;8.90;99.90
16655;DHT22;8441;51.344;7.022;2024-03-02T09:28:35;9.00;99.90
16655;DHT22;8441;51.344;7.022;2024-03-02T09:31:02;9.00;99.90
16655;DHT22;8441;51.344;7.022;2024-03-02T09:33:30;9.10;99.90
16655;DHT22;8441;51.344;7.022;2024-03-02T09:35:57;9.10;99.90
16655;DHT22;8441;51.344;7.022;2024-03-02T09:38:24;9.20;99.90
16655;DHT22;8441;51.344;7.022;2024-03-02T09:40:51;9.30;99.90
16655;DHT22;8441;51.344;7.022;2024-03-02T09:43:19;9.30;99.90
16655;DHT22;8441;51.344;7.022;2024-03-02T09:45:48;9.40;99.90
16655;DHT22;8441;51.344;7.022;2024-03-02T09:48:15;9.40;99.90
16655;DHT22;8441;51.344;7.022;2024-03-02T09:50:44;9.50;99.90
16655;DHT22;8441;51.344;7.022;2024-03-02T09:53:12;9.60;99.90
16655;DHT22;8441;51.344;7.022;2024-03-02T09:55:40;9.70;99.90
16655;DHT22;8441;51.344;7.022;2024-03-02T09:58:09;9.80;99.90
16655;DHT22;8441;51.344;7.022;2024-03-02T10:00:37;9.90;99.90
16655;DHT22;8441;51.344;7.022;2024-03-02T10:03:11;10.00;99.90
16655;DHT22;8441;51.344;7.022;2024-03-02T10:05:39;10.00;99.90
16655;DHT22;8441;51.344;7.022;2024-03-02T10:08:06;10.10;99.90
16655;DHT22;8441;51.344;7.022;2024-03-02T10:10:38;10.20;99.90
16655;DHT22;8441;51.344;7.022;2024-03-02T10:13:09;10.20;99.90
16655;DHT22;8441;51.344;7.022;2024-03-02T10:15:37;10.30;99.90
16655;DHT22;8441;51.344;7.022;2024-03-02T10:18:08;10.40;99.90
16655;DHT22;8441;51.344;7.022;2024-03-02T10:20:37;10.40;99.90
16655;DHT22;8441;51.344;7.022;2024-03-02T10:23:14;10.40;99.90
16655;DHT22;8441;51.344;7.022;2024-03-02T10:25:43;10.40;99.90
16655;DHT22;8441;51.344;7.022;2024-03-02T10:28:10;10.50;99.90
16655;DHT22;8441;51.344;7.022;2024-03-02T10:30:38;10.70;99.90
16655;DHT22;8441;51.344;7.022;2024-03-02T10:33:07;10.80;99.90
16655;DHT22;8441;51.344;7.022;2024-03-02T10:35:34;10.80;99.90
16655;DHT22;8441;51.344;7.022;2024-03-02T10:38:04;10.70;99.90
16655;DHT22;8441;51.344;7.022;2024-03-02T10:40:32;10.70;99.90
16655;DHT22;8441;51.344;7.022;2024-03-02T10:43:01;10.80;99.90
16655;DHT22;8441;51.344;7.022;2024-03-02T10:45:31;10.90;99.90
16655;DHT22;8441;51.344;7.022;2024-03-02T10:47:58;10.90;99.90
16655;DHT22;8441;51.344;7.022;2024-03-02T10:50:29;10.90;99.90
16655;DHT22;8441;51.344;7.022;2024-03-02T10:52:57;10.90;99.90
16655;DHT22;8441;51.344;7.022;2024-03-02T10:55:24;10.90;99.90
16655;DHT22;8441;51.344;7.022;2024-03-02T10:57:53;11.10;99.90
16655;DHT22;8441;51.344;7.022;2024-03-02T11:00:23;11.20;99.90
16655;DHT22;8441;51.344;7.022;2024-03-02T11:02:57;11.30;99.90
16655;DHT22;8441;51.344;7.022;2024-03-02T11:05:30;11.30;99.90
16655;DHT22;8441;51.344;7.022;2024-03-02T11:08:01;11.40;99.90
16655;DHT22;8441;51.344;7.022;2024-03-02T11:10:34;11.50;99.90
16655;DHT22;8441;51.344;7.022;2024-03-02T11:13:04;11.50;99.90
16655;DHT22;8441;51.344;7.022;2024-03-02T11:15:34;11.50;99.90
16655;DHT22;8441;51.344;7.022;2024-03-02T11:18:04;11.60;99.90
16655;DHT22;8441;51.344;7.022;2024-03-02T11:20:37;11.60;99.90
16655;DHT22;8441;51.344;7.022;2024-03-02T11:23:06;11.70;99.90
16655;DHT22;8441;51.344;7.022;2024-03-02T11:25:34;11.70;99.90
16655;DHT22;8441;51.344;7.022;2024-03-02T11:28:05;11.80;99.90
16655;DHT22;8441;51.344;7.022;2024-03-02T11:30:50;11.80;99.90
16655;DHT22;8441;51.344;7.022;2024-03-02T11:33:25;11.90;99.90
16655;DHT22;8441;51.344;7.022;2024-03-02T11:35:57;11.90;99.90
16655;DHT22;8441;51.344;7.022;2024-03-02T11:38:36;12.00;99.90
16655;DHT22;8441;51.344;7.022;2024-03-02T11:41:06;12.10;99.90
16655;DHT22;8441;51.344;7.022;2024-03-02T11:43:37;12.10;99.90
16655;DHT22;8441;51.344;7.022;2024-03-02T11:46:06;12.10;99.90
16655;DHT22;8441;51.344;7.022;2024-03-02T11:48:35;12.10;99.90
16655;DHT22;8441;51.344;7.022;2024-03-02T11:51:05;12.10;99.90
16655;DHT22;8441;51.344;7.022;2024-03-02T11:53:33;12.30;99.90
16655;DHT22;8441;51.344;7.022;2024-03-02T11:56:06;12.30;99.90
16655;DHT22;8441;51.344;7.022;2024-03-02T11:58:36;12.40;99.90
16655;DHT22;8441;51.344;7.022;2024-03-02T12:01:04;12.50;99.90
16655;DHT22;8441;51.344;7.022;2024-03-02T12:03:32;12.50;99.90
16655;DHT22;8441;51.344;7.022;2024-03-02T12:06:01;12.60;99.90
16655;DHT22;8441;51.344;7.022;2024-03-02T12:08:31;12.50;99.90
16655;DHT22;8441;51.344;7.022;2024-03-02T12:10:59;12.40;99.90
16655;DHT22;8441;51.344;7.022;2024-03-02T12:13:27;12.30;99.90
16655;DHT22;8441;51.344;7.022;2024-03-02T12:15:55;12.30;99.90
16655;DHT22;8441;51.344;7.022;2024-03-02T12:18:23;12.40;99.90
16655;DHT22;8441;51.344;7.022;2024-03-02T12:20:51;12.40;99.90
16655;DHT22;8441;51.344;7.022;2024-03-02T12:23:22;12.30;99.90
16655;DHT22;8441;51.344;7.022;2024-03-02T12:25:51;12.40;99.90
16655;DHT22;8441;51.344;7.022;2024-03-02T12:28:19;12.50;99.90
16655;DHT22;8441;51.344;7.022;2024-03-02T12:30:46;12.70;99.90
16655;DHT22;8441;51.344;7.022;2024-03-02T12:33:15;12.90;99.90
16655;DHT22;8441;51.344;7.022;2024-03-02T12:35:42;13.00;99.90
16655;DHT22;8441;51.344;7.022;2024-03-02T12:38:09;13.20;99.90
16655;DHT22;8441;51.344;7.022;2024-03-02T12:40:37;13.30;99.90
16655;DHT22;8441;51.344;7.022;2024-03-02T12:43:07;13.40;99.90
16655;DHT22;8441;51.344;7.022;2024-03-02T12:45:34;13.30;99.90
16655;DHT22;8441;51.344;7.022;2024-03-02T12:48:03;13.30;99.90
16655;DHT22;8441;51.344;7.022;2024-03-02T12:50:32;13.30;99.90
16655;DHT22;8441;51.344;7.022;2024-03-02T12:53:00;13.40;99.90
16655;DHT22;8441;51.344;7.022;2024-03-02T12:55:27;13.40;99.90
16655;DHT22;8441;51.344;7.022;2024-03-02T12:57:54;13.40;99.90
16655;DHT22;8441;51.344;7.022;2024-03-02T13:00:24;13.50;99.90
16655;DHT22;8441;51.344;7.022;2024-03-02T13:02:51;13.60;99.90
16655;DHT22;8441;51.344;7.022;2024-03-02T13:05:19;13.60;99.90
16655;DHT22;8441;51.344;7.022;2024-03-02T13:07:47;13.60;99.90
16655;DHT22;8441;51.344;7.022;2024-03-02T13:10:15;13.70;99.90
16655;DHT22;8441;51.344;7.022;2024-03-02T13:12:42;13.60;99.90
16655;DHT22;8441;51.344;7.022;2024-03-02T13:15:10;13.60;99.90
16655;DHT22;8441;51.344;7.022;2024-03-02T13:17:39;13.60;99.90
16655;DHT22;8441;51.344;7.022;2024-03-02T13:20:07;13.60;99.90
16655;DHT22;8441;51.344;7.022;2024-03-02T13:22:36;13.60;99.90
16655;DHT22;8441;51.344;7.022;2024-03-02T13:25:05;13.60;99.90
16655;DHT22;8441;51.344;7.022;2024-03-02T13:27:34;13.60;99.90
16655;DHT22;8441;51.344;7.022;2024-03-02T13:30:02;13.60;99.90
16655;DHT22;8441;51.344;7.022;2024-03-02T13:32:31;13.60;99.90
16655;DHT22;8441;51.344;7.022;2024-03-02T13:35:00;13.60;99.90
16655;DHT22;8441;51.344;7.022;2024-03-02T13:37:28;13.70;99.90
16655;DHT22;8441;51.344;7.022;2024-03-02T13:39:56;13.90;99.90
16655;DHT22;8441;51.344;7.022;2024-03-02T13:42:23;13.80;99.90
16655;DHT22;8441;51.344;7.022;2024-03-02T13:44:51;13.90;99.90
16655;DHT22;8441;51.344;7.022;2024-03-02T13:47:18;13.70;99.90
16655;DHT22;8441;51.344;7.022;2024-03-02T13:49:46;13.70;99.90
16655;DHT22;8441;51.344;7.022;2024-03-02T13:52:16;13.90;99.90
16655;DHT22;8441;51.344;7.022;2024-03-02T13:54:44;14.00;99.90
16655;DHT22;8441;51.344;7.022;2024-03-02T13:57:12;14.10;99.90
16655;DHT22;8441;51.344;7.022;2024-03-02T13:59:40;13.90;99.90
16655;DHT22;8441;51.344;7.022;2024-03-02T14:02:09;14.00;99.90
16655;DHT22;8441;51.344;7.022;2024-03-02T14:04:37;14.00;99.90
16655;DHT22;8441;51.344;7.022;2024-03-02T14:07:05;14.10;99.90
16655;DHT22;8441;51.344;7.022;2024-03-02T14:09:34;14.10;99.90
16655;DHT22;8441;51.344;7.022;2024-03-02T14:12:02;14.10;99.90
16655;DHT22;8441;51.344;7.022;2024-03-02T14:14:30;14.00;99.90
16655;DHT22;8441;51.344;7.022;2024-03-02T14:16:57;13.90;99.90
16655;DHT22;8441;51.344;7.022;2024-03-02T14:19:26;13.90;99.90
16655;DHT22;8441;51.344;7.022;2024-03-02T14:21:54;13.80;99.90
16655;DHT22;8441;51.344;7.022;2024-03-02T14:24:22;14.00;99.90
16655;DHT22;8441;51.344;7.022;2024-03-02T14:26:53;14.20;99.90
16655;DHT22;8441;51.344;7.022;2024-03-02T14:29:20;14.40;99.90
16655;DHT22;8441;51.344;7.022;2024-03-02T14:31:47;14.60;99.90
16655;DHT22;8441;51.344;7.022;2024-03-02T14:34:15;14.70;99.90
16655;DHT22;8441;51.344;7.022;2024-03-02T14:36:42;14.90;99.90
16655;DHT22;8441;51.344;7.022;2024-03-02T14:39:10;15.00;99.90
16655;DHT22;8441;51.344;7.022;2024-03-02T14:41:37;14.90;99.80
16655;DHT22;8441;51.344;7.022;2024-03-02T14:44:06;15.10;99.80
16655;DHT22;8441;51.344;7.022;2024-03-02T14:46:34;15.10;99.50
16655;DHT22;8441;51.344;7.022;2024-03-02T14:49:01;15.10;99.30
16655;DHT22;8441;51.344;7.022;2024-03-02T14:51:29;15.00;99.40
16655;DHT22;8441;51.344;7.022;2024-03-02T14:53:56;14.90;99.30
16655;DHT22;8441;51.344;7.022;2024-03-02T14:56:24;14.90;99.70
16655;DHT22;8441;51.344;7.022;2024-03-02T14:58:51;14.60;99.20
16655;DHT22;8441;51.344;7.022;2024-03-02T15:01:21;14.50;99.60
16655;DHT22;8441;51.344;7.022;2024-03-02T15:03:49;14.40;99.90
16655;DHT22;8441;51.344;7.022;2024-03-02T15:06:16;14.20;99.90
16655;DHT22;8441;51.344;7.022;2024-03-02T15:08:44;14.10;99.90
16655;DHT22;8441;51.344;7.022;2024-03-02T15:11:12;14.00;99.90
16655;DHT22;8441;51.344;7.022;2024-03-02T15:13:40;13.90;99.90
16655;DHT22;8441;51.344;7.022;2024-03-02T15:16:08;14.00;99.90
16655;DHT22;8441;51.344;7.022;2024-03-02T15:18:37;13.90;99.90
16655;DHT22;8441;51.344;7.022;2024-03-02T15:21:04;13.80;99.90
16655;DHT22;8441;51.344;7.022;2024-03-02T15:23:32;13.80;99.90
16655;DHT22;8441;51.344;7.022;2024-03-02T15:26:00;13.60;99.90
16655;DHT22;8441;51.344;7.022;2024-03-02T15:28:27;13.60;99.90
16655;DHT22;8441;51.344;7.022;2024-03-02T15:30:54;13.60;99.90
16655;DHT22;8441;51.344;7.022;2024-03-02T15:33:22;13.60;99.90
16655;DHT22;8441;51.344;7.022;2024-03-02T15:35:52;13.60;99.90
16655;DHT22;8441;51.344;7.022;2024-03-02T15:38:20;13.60;99.90
16655;DHT22;8441;51.344;7.022;2024-03-02T15:40:47;13.60;99.90
16655;DHT22;8441;51.344;7.022;2024-03-02T15:43:15;13.50;99.90
16655;DHT22;8441;51.344;7.022;2024-03-02T15:45:42;13.50;99.90
16655;DHT22;8441;51.344;7.022;2024-03-02T15:48:09;13.50;99.90
16655;DHT22;8441;51.344;7.022;2024-03-02T15:50:36;13.50;99.90
16655;DHT22;8441;51.344;7.022;2024-03-02T15:53:06;13.40;99.90
16655;DHT22;8441;51.344;7.022;2024-03-02T15:55:33;13.30;99.90
16655;DHT22;8441;51.344;7.022;2024-03-02T15:58:01;13.40;99.90
16655;DHT22;8441;51.344;7.022;2024-03-02T16:00:31;13.40;99.90
16655;DHT22;8441;51.344;7.022;2024-03-02T16:02:59;13.40;99.90